Time;durP1;ratioP1;P1;durP2;ratioP2;P2;SDS_P1;SDS_P2;PMS_P1;PMS_P2;Temp;Humidity;BMP_temperature;BMP_pressure;BME280_temperature;BME280_humidity;BME280_pressure;Samples;Min_cycle;Max_cycle;Signal;HPM_P1;HPM_P2
2022/05/28 00:00:07;;;;;;;5.22;2.72;;;12.90;83.10;;;;;;5093832;28;20404;-75
2022/05/28 00:02:34;;;;;;;8.63;2.75;;;12.90;83.60;;;;;;5092827;28;20048;-75
2022/05/28 00:05:01;;;;;;;11.20;3.10;;;12.80;84.30;;;;;;5093571;28;20044;-82
2022/05/28 00:07:28;;;;;;;8.20;3.35;;;12.80;83.90;;;;;;5092720;28;20040;-72
2022/05/28 00:09:55;;;;;;;7.60;2.17;;;12.80;84.20;;;;;;5094567;28;20040;-75
2022/05/28 00:12:24;;;;;;;4.65;2.38;;;12.70;84.90;;;;;;5094570;28;20050;-71
2022/05/28 00:14:51;;;;;;;9.50;2.72;;;12.70;85.10;;;;;;5092234;28;20048;-73
2022/05/28 00:17:18;;;;;;;337.63;282.27;;;12.70;85.20;;;;;;5092512;28;20044;-65
2022/05/28 00:19:45;;;;;;;37.47;23.70;;;12.70;86.40;;;;;;5092016;28;20123;-64
2022/05/28 00:22:12;;;;;;;13.82;9.68;;;12.70;85.80;;;;;;5093674;28;20067;-74
2022/05/28 00:24:39;;;;;;;11.63;4.40;;;12.80;85.90;;;;;;5093112;28;20048;-72
2022/05/28 00:27:05;;;;;;;5.78;2.95;;;12.70;85.70;;;;;;5093544;28;20063;-75
2022/05/28 00:29:32;;;;;;;7.20;2.80;;;12.70;86.20;;;;;;5075261;28;20542;-73
2022/05/28 00:31:59;;;;;;;5.28;2.35;;;12.60;86.40;;;;;;5093547;28;20050;-74
2022/05/28 00:34:27;;;;;;;4.32;2.00;;;12.60;86.90;;;;;;5094289;28;20047;-74
2022/05/28 00:36:54;;;;;;;7.82;2.97;;;12.60;87.50;;;;;;5093507;28;20379;-73
2022/05/28 00:39:21;;;;;;;6.90;2.05;;;12.50;87.90;;;;;;5093351;28;20040;-73
2022/05/28 00:41:48;;;;;;;7.60;2.22;;;12.50;89.20;;;;;;5091688;28;20455;-73
2022/05/28 00:44:15;;;;;;;7.35;2.40;;;12.50;89.10;;;;;;5091874;28;20044;-76
2022/05/28 00:46:42;;;;;;;5.97;2.03;;;12.50;89.50;;;;;;5093050;28;20036;-73
2022/05/28 00:49:15;;;;;;;5.40;2.30;;;12.40;90.00;;;;;;5093346;28;20040;-73
2022/05/28 00:51:44;;;;;;;5.32;2.17;;;12.40;90.40;;;;;;5076264;28;20372;-73
2022/05/28 00:54:11;;;;;;;5.90;2.45;;;12.40;90.60;;;;;;5076229;28;20067;-73
2022/05/28 00:56:38;;;;;;;6.00;1.67;;;12.30;91.00;;;;;;5076208;28;20040;-73
2022/05/28 00:59:06;;;;;;;5.88;2.40;;;12.20;91.20;;;;;;5093259;28;20055;-73
2022/05/28 01:01:33;;;;;;;5.22;2.40;;;12.20;91.50;;;;;;5059160;28;20051;-73
2022/05/28 01:04:12;;;;;;;8.60;3.10;;;12.20;91.80;;;;;;5093289;28;20048;-73
2022/05/28 01:06:45;;;;;;;8.05;2.70;;;12.20;92.30;;;;;;5091925;28;20079;-72
2022/05/28 01:09:38;;;;;;;7.05;1.88;;;12.20;92.50;;;;;;5091991;28;20058;-73
2022/05/28 01:12:20;;;;;;;6.95;2.17;;;12.20;93.20;;;;;;5077708;28;20379;-73
2022/05/28 01:14:55;;;;;;;3.53;2.42;;;12.10;93.50;;;;;;5092493;28;20036;-73
2022/05/28 01:17:27;;;;;;;8.23;2.80;;;12.10;93.40;;;;;;5074910;28;20482;-73
2022/05/28 01:20:20;;;;;;;4.57;2.17;;;12.10;94.30;;;;;;5092657;28;20040;-73
2022/05/28 01:22:50;;;;;;;6.05;2.10;;;12.10;94.60;;;;;;5089727;28;20040;-72
2022/05/28 01:25:27;;;;;;;6.82;2.67;;;12.00;95.10;;;;;;5092736;28;20040;-73
2022/05/28 01:27:58;;;;;;;7.82;2.53;;;12.00;95.30;;;;;;5091647;28;20486;-74
2022/05/28 01:30:25;;;;;;;7.32;2.15;;;12.00;95.80;;;;;;5076249;28;20044;-74
2022/05/28 01:32:52;;;;;;;3.28;1.88;;;11.90;95.90;;;;;;5092316;28;20036;-73
2022/05/28 01:35:19;;;;;;;8.82;2.17;;;11.90;96.10;;;;;;5074906;28;20537;-74
2022/05/28 01:37:47;;;;;;;5.80;2.08;;;11.90;96.40;;;;;;5093554;28;20040;-74
2022/05/28 01:40:14;;;;;;;6.03;2.45;;;11.80;96.70;;;;;;5078346;28;20046;-74
2022/05/28 01:42:46;;;;;;;7.60;2.22;;;11.80;96.90;;;;;;5095330;28;20483;-74
2022/05/28 01:45:14;;;;;;;6.22;1.73;;;11.80;97.20;;;;;;5079210;28;20094;-74
2022/05/28 01:47:43;;;;;;;10.77;1.90;;;11.80;97.30;;;;;;5094852;28;20040;-74
2022/05/28 01:50:11;;;;;;;6.28;1.80;;;11.80;97.10;;;;;;5078732;28;20130;-74
2022/05/28 01:52:39;;;;;;;6.53;2.03;;;11.80;97.40;;;;;;5079333;28;20047;-74
2022/05/28 01:55:06;;;;;;;4.32;1.90;;;11.80;97.40;;;;;;5078223;28;20048;-74
2022/05/28 01:57:33;;;;;;;8.38;2.63;;;11.70;97.70;;;;;;5078991;28;20055;-74
2022/05/28 02:00:00;;;;;;;8.10;2.22;;;11.70;97.70;;;;;;5078816;28;20091;-74
2022/05/28 02:02:27;;;;;;;8.02;2.55;;;11.70;98.20;;;;;;5094836;28;20387;-74
2022/05/28 02:04:54;;;;;;;6.75;2.50;;;11.70;98.30;;;;;;5095007;28;20044;-74
2022/05/28 02:07:21;;;;;;;5.55;2.17;;;11.60;98.50;;;;;;5094638;28;20491;-74
2022/05/28 02:09:54;;;;;;;9.40;2.58;;;11.70;98.80;;;;;;5094548;28;20129;-74
2022/05/28 02:12:41;;;;;;;8.63;2.30;;;11.60;99.30;;;;;;5094573;28;20043;-74
2022/05/28 02:15:21;;;;;;;6.22;2.72;;;11.70;99.40;;;;;;5094558;28;20456;-74
2022/05/28 02:17:50;;;;;;;7.43;2.88;;;11.60;99.90;;;;;;5095384;28;20058;-74
2022/05/28 02:20:40;;;;;;;9.95;3.10;;;11.60;99.90;;;;;;5078532;28;20044;-74
2022/05/28 02:23:20;;;;;;;4.82;1.77;;;11.50;99.90;;;;;;5094916;28;20052;-74
2022/05/28 02:26:25;;;;;;;6.28;2.35;;;11.40;99.90;;;;;;5094531;28;20418;-74
2022/05/28 02:28:52;;;;;;;7.28;2.85;;;11.40;99.90;;;;;;5073589;28;20044;-74
2022/05/28 02:31:24;;;;;;;11.07;3.92;;;11.40;99.90;;;;;;5087588;28;20042;-74
2022/05/28 02:33:50;;;;;;;6.10;2.17;;;11.30;99.90;;;;;;5077944;28;20044;-74
2022/05/28 02:36:18;;;;;;;6.90;2.45;;;11.30;99.90;;;;;;5094347;28;20043;-74
2022/05/28 02:38:45;;;;;;;8.27;2.20;;;11.30;99.90;;;;;;5093953;28;20128;-74
2022/05/28 02:41:12;;;;;;;6.28;2.85;;;11.20;99.90;;;;;;5094495;28;20048;-74
2022/05/28 02:43:38;;;;;;;4.45;1.80;;;11.20;99.90;;;;;;5094235;28;20054;-74
2022/05/28 02:46:07;;;;;;;8.30;2.78;;;11.20;99.90;;;;;;5094323;28;20044;-74
2022/05/28 02:48:34;;;;;;;4.00;2.30;;;11.20;99.90;;;;;;5060659;28;20036;-74
2022/05/28 02:51:12;;;;;;;6.57;2.22;;;11.10;99.90;;;;;;5077314;28;20044;-74
2022/05/28 02:53:39;;;;;;;5.88;1.92;;;11.10;99.90;;;;;;5095258;28;20044;-74
2022/05/28 02:56:06;;;;;;;4.80;2.10;;;11.10;99.90;;;;;;5094450;28;20055;-74
2022/05/28 02:58:33;;;;;;;10.35;2.13;;;11.10;99.90;;;;;;5094746;28;20047;-73
2022/05/28 03:01:03;;;;;;;7.45;2.20;;;11.00;99.90;;;;;;5094713;28;20044;-74
2022/05/28 03:03:30;;;;;;;5.63;2.25;;;11.00;99.90;;;;;;5095783;28;20039;-74
2022/05/28 03:05:57;;;;;;;5.65;2.67;;;10.90;99.90;;;;;;5094629;28;20056;-74
2022/05/28 03:08:24;;;;;;;4.30;1.70;;;10.90;99.90;;;;;;5093426;28;20447;-74
2022/05/28 03:10:51;;;;;;;7.88;2.60;;;10.90;99.90;;;;;;5095164;28;20040;-74
2022/05/28 03:13:17;;;;;;;7.88;2.28;;;10.90;99.90;;;;;;5095610;28;20047;-74
2022/05/28 03:15:44;;;;;;;6.38;1.80;;;10.90;99.90;;;;;;5094832;28;20044;-75
2022/05/28 03:18:13;;;;;;;5.65;2.35;;;10.90;99.90;;;;;;5094479;28;20044;-74
2022/05/28 03:20:40;;;;;;;7.18;2.83;;;10.90;99.90;;;;;;5094284;28;20042;-74
2022/05/28 03:23:07;;;;;;;8.65;1.98;;;10.90;99.90;;;;;;5093075;28;20070;-74
2022/05/28 03:25:33;;;;;;;5.03;2.05;;;10.90;99.90;;;;;;5093383;28;20044;-74
2022/05/28 03:28:00;;;;;;;5.60;2.22;;;10.90;99.90;;;;;;5094509;28;20051;-74
2022/05/28 03:30:27;;;;;;;5.63;2.10;;;10.90;99.90;;;;;;5095273;28;20054;-73
2022/05/28 03:32:54;;;;;;;5.50;1.83;;;11.00;99.90;;;;;;5094177;28;20043;-74
2022/05/28 03:35:21;;;;;;;6.82;2.65;;;11.00;99.90;;;;;;5094403;28;20047;-74
2022/05/28 03:37:48;;;;;;;4.95;2.17;;;10.90;99.90;;;;;;5094375;28;20067;-74
2022/05/28 03:40:15;;;;;;;8.30;2.03;;;10.90;99.90;;;;;;5093969;28;20042;-74
2022/05/28 03:42:42;;;;;;;7.15;2.72;;;10.90;99.90;;;;;;5094973;28;20360;-74
2022/05/28 03:45:10;;;;;;;8.90;2.53;;;10.90;99.90;;;;;;5094764;28;20044;-74
2022/05/28 03:47:37;;;;;;;8.52;3.05;;;10.90;99.90;;;;;;5092938;28;20040;-74
2022/05/28 03:50:04;;;;;;;6.93;1.80;;;10.90;99.90;;;;;;5092892;28;20467;-74
2022/05/28 03:52:31;;;;;;;7.40;1.95;;;10.80;99.90;;;;;;5076755;28;20047;-74
2022/05/28 03:54:58;;;;;;;5.40;2.10;;;10.80;99.90;;;;;;5093719;28;20038;-74
2022/05/28 03:57:31;;;;;;;4.43;1.80;;;10.80;99.90;;;;;;5094008;28;20053;-74
2022/05/28 03:59:58;;;;;;;272.25;243.13;;;10.80;99.90;;;;;;5076308;28;20048;-65
2022/05/28 04:02:26;;;;;;;16.02;11.18;;;10.80;99.90;;;;;;5076672;28;20055;-73
2022/05/28 04:04:53;;;;;;;10.93;5.03;;;10.80;99.90;;;;;;5076520;28;20048;-73
2022/05/28 04:07:20;;;;;;;16.73;3.17;;;10.70;99.90;;;;;;5093185;28;20444;-73
2022/05/28 04:09:47;;;;;;;8.13;2.40;;;10.80;99.90;;;;;;5092531;28;20044;-73
2022/05/28 04:12:14;;;;;;;6.97;2.60;;;10.80;99.90;;;;;;5093497;28;20036;-73
2022/05/28 04:14:41;;;;;;;9.23;3.22;;;10.70;99.90;;;;;;5093501;28;20490;-74
2022/05/28 04:17:08;;;;;;;9.63;2.28;;;10.70;99.90;;;;;;5075472;28;20407;-73
2022/05/28 04:19:38;;;;;;;8.38;2.17;;;10.60;99.90;;;;;;5092953;28;20040;-73
2022/05/28 04:22:05;;;;;;;7.93;2.30;;;10.60;99.90;;;;;;5093339;28;20051;-73
2022/05/28 04:24:32;;;;;;;8.38;2.47;;;10.60;99.90;;;;;;5092422;28;20480;-73
2022/05/28 04:26:59;;;;;;;7.53;2.47;;;10.60;99.90;;;;;;5093898;28;20459;-73
2022/05/28 04:29:26;;;;;;;7.75;1.80;;;10.60;99.90;;;;;;5093597;28;20044;-73
2022/05/28 04:31:53;;;;;;;7.75;2.17;;;10.60;99.90;;;;;;5092422;28;20131;-73
2022/05/28 04:34:19;;;;;;;7.75;1.65;;;10.60;99.90;;;;;;5092876;28;20051;-73
2022/05/28 04:36:46;;;;;;;8.23;2.58;;;10.60;99.90;;;;;;5092332;28;20066;-73
2022/05/28 04:39:13;;;;;;;10.00;2.17;;;10.60;99.90;;;;;;5093477;28;20036;-73
2022/05/28 04:41:40;;;;;;;8.98;1.70;;;10.60;99.90;;;;;;5075243;28;20492;-73
2022/05/28 04:44:07;;;;;;;15.73;3.90;;;10.60;99.90;;;;;;5093724;28;20077;-73
2022/05/28 04:46:34;;;;;;;6.80;2.30;;;10.60;99.90;;;;;;5093035;28;20407;-73
2022/05/28 04:49:01;;;;;;;7.75;2.00;;;10.70;99.90;;;;;;5092320;28;20107;-74
2022/05/28 04:51:28;;;;;;;9.07;3.30;;;10.70;99.90;;;;;;5093554;28;20094;-73
2022/05/28 04:53:55;;;;;;;11.65;2.75;;;10.80;99.90;;;;;;5093033;28;20046;-73
2022/05/28 04:56:22;;;;;;;8.88;3.30;;;10.90;99.90;;;;;;5093022;28;20467;-73
2022/05/28 04:58:49;;;;;;;8.95;2.67;;;11.20;99.90;;;;;;5093640;28;20066;-73
2022/05/28 05:01:17;;;;;;;8.00;2.10;;;11.60;99.90;;;;;;5075468;28;20044;-73
2022/05/28 05:03:44;;;;;;;9.80;2.65;;;11.90;99.90;;;;;;5091801;28;20071;-73
2022/05/28 05:06:11;;;;;;;8.13;1.88;;;12.40;99.90;;;;;;5075158;28;20134;-73
2022/05/28 05:08:42;;;;;;;4.47;2.28;;;12.90;99.90;;;;;;5093004;28;20051;-73
2022/05/28 05:11:09;;;;;;;8.95;2.75;;;13.40;99.90;;;;;;5093204;28;20044;-73
2022/05/28 05:13:36;;;;;;;6.05;2.03;;;13.90;99.90;;;;;;5097207;28;20051;-72
2022/05/28 05:16:13;;;;;;;6.15;2.30;;;14.40;99.90;;;;;;5096821;28;20040;-73
2022/05/28 05:18:41;;;;;;;9.85;2.33;;;14.90;97.50;;;;;;5096710;28;20044;-74
2022/05/28 05:21:08;;;;;;;6.90;2.75;;;15.20;96.30;;;;;;5095372;28;20098;-73
2022/05/28 05:23:34;;;;;;;7.32;2.15;;;15.60;94.40;;;;;;5097686;28;20389;-73
2022/05/28 05:26:07;;;;;;;6.70;3.15;;;15.70;92.20;;;;;;5096946;28;20044;-71
2022/05/28 05:28:34;;;;;;;4.70;2.10;;;15.70;91.50;;;;;;5096524;28;20047;-71
2022/05/28 05:31:01;;;;;;;6.28;1.90;;;15.50;91.60;;;;;;5096590;28;20040;-71
2022/05/28 05:33:27;;;;;;;5.38;2.25;;;15.30;90.80;;;;;;5096491;28;20043;-73
2022/05/28 05:35:54;;;;;;;5.68;2.22;;;15.30;90.90;;;;;;5096381;28;20047;-73
2022/05/28 05:38:21;;;;;;;4.30;1.80;;;15.30;90.20;;;;;;5096413;28;20036;-71
2022/05/28 05:40:50;;;;;;;7.00;2.08;;;15.20;91.10;;;;;;5096554;28;20040;-73
2022/05/28 05:43:17;;;;;;;;;;;15.20;90.80;;;;;;5097034;28;20059;-73
2022/05/28 05:45:55;;;;;;;6.68;1.90;;;15.00;90.10;;;;;;5096510;28;19916;-73
2022/05/28 05:48:22;;;;;;;6.10;2.00;;;14.90;91.50;;;;;;5095088;28;20044;-73
2022/05/28 05:50:49;;;;;;;4.78;2.00;;;14.80;91.00;;;;;;5096117;28;20051;-71
2022/05/28 05:53:16;;;;;;;6.53;2.28;;;14.60;91.50;;;;;;5096397;28;20418;-70
2022/05/28 05:55:43;;;;;;;6.63;2.33;;;14.40;92.00;;;;;;5096403;28;20044;-71
2022/05/28 05:58:10;;;;;;;8.30;1.90;;;14.30;92.30;;;;;;5078124;28;20051;-70
2022/05/28 06:00:37;;;;;;;4.47;2.05;;;14.00;92.60;;;;;;5096216;28;20047;-72
2022/05/28 06:03:04;;;;;;;9.18;2.42;;;14.00;93.60;;;;;;5095954;28;20074;-73
2022/05/28 06:05:31;;;;;;;8.75;1.88;;;13.80;94.00;;;;;;5096629;28;20040;-73
2022/05/28 06:07:58;;;;;;;12.73;3.92;;;13.90;94.90;;;;;;5095110;28;20460;-73
2022/05/28 06:10:26;;;;;;;6.22;2.20;;;14.00;94.50;;;;;;5096138;28;20048;-73
2022/05/28 06:12:52;;;;;;;6.47;2.47;;;13.70;94.90;;;;;;5095782;28;20044;-73
2022/05/28 06:15:19;;;;;;;7.63;2.40;;;13.60;95.80;;;;;;5094481;28;20494;-73
2022/05/28 06:17:48;;;;;;;8.40;2.28;;;13.70;95.80;;;;;;5095522;28;20403;-73
2022/05/28 06:20:15;;;;;;;7.00;2.80;;;13.50;96.90;;;;;;5095447;28;20047;-73
2022/05/28 06:22:42;;;;;;;6.25;2.20;;;13.40;97.10;;;;;;5095169;28;20497;-73
2022/05/28 06:25:09;;;;;;;7.30;2.42;;;13.40;97.90;;;;;;5096337;28;20040;-73
2022/05/28 06:27:36;;;;;;;7.00;1.55;;;13.40;98.50;;;;;;5096308;28;20055;-73
2022/05/28 06:30:04;;;;;;;7.78;2.58;;;13.60;98.50;;;;;;5078328;28;20040;-73
2022/05/28 06:32:31;;;;;;;9.50;1.88;;;13.50;98.20;;;;;;5095293;28;20040;-73
2022/05/28 06:34:58;;;;;;;5.93;1.67;;;13.50;99.00;;;;;;5095840;28;20459;-73
2022/05/28 06:37:25;;;;;;;6.57;1.80;;;13.50;98.90;;;;;;5095296;28;20048;-73
2022/05/28 06:39:52;;;;;;;8.68;2.00;;;13.40;99.30;;;;;;5095139;28;20490;-73
2022/05/28 06:42:19;;;;;;;8.30;2.53;;;13.30;99.20;;;;;;5077970;28;20056;-74
2022/05/28 06:44:45;;;;;;;8.73;2.38;;;13.40;99.40;;;;;;5094821;28;20040;-73
2022/05/28 06:47:12;;;;;;;9.38;2.15;;;13.30;99.90;;;;;;5094248;28;20043;-73
2022/05/28 06:49:39;;;;;;;8.80;2.42;;;13.40;99.90;;;;;;5095393;28;20074;-74
2022/05/28 06:52:06;;;;;;;8.23;2.05;;;13.50;99.90;;;;;;5077348;28;20047;-73
2022/05/28 06:54:33;;;;;;;5.20;1.77;;;13.60;99.90;;;;;;5095087;28;20044;-73
2022/05/28 06:57:00;;;;;;;6.40;2.10;;;13.70;99.90;;;;;;5095774;28;20044;-74
2022/05/28 06:59:27;;;;;;;5.38;2.00;;;13.80;99.20;;;;;;5077103;28;20044;-74
2022/05/28 07:01:56;;;;;;;8.15;1.88;;;13.90;99.10;;;;;;5093800;28;20376;-73
2022/05/28 07:04:23;;;;;;;10.00;2.10;;;13.90;99.00;;;;;;5095330;28;20040;-70
2022/05/28 07:06:50;;;;;;;6.55;1.85;;;13.90;99.00;;;;;;5093469;28;20043;-72
2022/05/28 07:09:17;;;;;;;6.65;2.95;;;13.90;98.70;;;;;;5094691;28;20127;-72
2022/05/28 07:11:44;;;;;;;5.60;1.92;;;13.80;98.90;;;;;;5093652;28;20044;-72
2022/05/28 07:14:11;;;;;;;5.68;2.47;;;13.70;99.30;;;;;;5094532;28;20040;-72
2022/05/28 07:16:37;;;;;;;9.13;2.30;;;13.70;99.40;;;;;;5094458;28;20048;-72
2022/05/28 07:19:10;;;;;;;3.55;1.88;;;13.90;98.80;;;;;;5094429;28;20083;-72
2022/05/28 07:21:37;;;;;;;4.07;2.17;;;13.70;99.90;;;;;;5095168;28;20143;-72
2022/05/28 07:24:04;;;;;;;7.25;2.30;;;13.80;99.20;;;;;;5093902;28;20141;-71
2022/05/28 07:26:31;;;;;;;8.00;2.55;;;13.90;99.70;;;;;;5093892;28;20048;-72
2022/05/28 07:28:58;;;;;;;5.13;1.92;;;14.00;99.60;;;;;;5094105;28;20040;-72
2022/05/28 07:31:25;;;;;;;8.48;2.63;;;14.10;99.90;;;;;;5092954;28;20047;-72
2022/05/28 07:33:52;;;;;;;7.10;2.53;;;14.10;98.30;;;;;;5092955;28;20040;-72
2022/05/28 07:36:20;;;;;;;6.43;1.80;;;14.20;98.70;;;;;;5092174;28;20054;-72
2022/05/28 07:38:47;;;;;;;7.30;2.17;;;14.30;98.00;;;;;;5077449;28;20075;-72
2022/05/28 07:41:16;;;;;;;7.93;2.22;;;14.30;98.10;;;;;;5093089;28;20127;-72
2022/05/28 07:43:43;;;;;;;9.43;1.98;;;14.50;99.60;;;;;;5075839;28;20080;-72
2022/05/28 07:46:21;;;;;;;5.28;2.00;;;14.60;97.10;;;;;;5093851;28;20056;-72
2022/05/28 07:48:48;;;;;;;5.45;1.92;;;14.50;97.00;;;;;;5092700;28;20121;-70
2022/05/28 07:51:15;;;;;;;23.30;17.75;;;14.60;97.70;;;;;;5092934;28;20056;-68
2022/05/28 07:53:42;;;;;;;8.45;4.05;;;14.70;96.90;;;;;;5094129;28;20047;-71
2022/05/28 07:56:10;;;;;;;10.02;2.75;;;14.70;97.00;;;;;;5075881;28;20051;-71
2022/05/28 07:58:37;;;;;;;7.95;2.47;;;14.70;96.60;;;;;;5075964;28;20039;-71
2022/05/28 08:01:04;;;;;;;6.43;2.10;;;14.70;97.40;;;;;;5092350;28;20040;-71
2022/05/28 08:03:31;;;;;;;7.57;2.45;;;14.80;96.60;;;;;;5059459;28;20051;-71
2022/05/28 08:05:58;;;;;;;4.60;2.30;;;14.90;95.20;;;;;;5076857;28;20043;-71
2022/05/28 08:08:26;;;;;;;10.48;2.70;;;14.80;95.20;;;;;;5075673;28;20048;-71
2022/05/28 08:10:53;;;;;;;5.70;2.00;;;14.80;94.80;;;;;;5092646;28;20044;-71
2022/05/28 08:13:22;;;;;;;7.40;2.13;;;14.80;94.60;;;;;;5093539;28;20040;-71
2022/05/28 08:15:51;;;;;;;6.70;2.87;;;14.80;95.20;;;;;;5093874;28;20048;-72
2022/05/28 08:18:18;;;;;;;;;;;15.00;94.60;;;;;;5092773;28;20048;-72
2022/05/28 08:23:31;;;;;;;8.15;2.00;;;15.20;93.60;;;;;;5094529;28;20044;-71
2022/05/28 08:25:58;;;;;;;7.72;1.80;;;15.10;93.40;;;;;;5093289;28;20119;-71
2022/05/28 08:28:25;;;;;;;4.70;1.45;;;15.20;93.80;;;;;;5094423;28;20039;-71
2022/05/28 08:30:52;;;;;;;10.63;2.45;;;15.30;93.30;;;;;;5093563;28;20044;-71
2022/05/28 08:33:19;;;;;;;8.82;2.05;;;15.40;92.50;;;;;;5058900;28;20052;-71
2022/05/28 08:35:46;;;;;;;8.23;2.67;;;15.40;92.50;;;;;;5092041;28;20487;-71
2022/05/28 08:38:16;;;;;;;6.13;2.28;;;15.50;91.10;;;;;;5094044;28;20123;-71
2022/05/28 08:40:46;;;;;;;;;;;15.30;90.40;;;;;;5076909;28;20044;-71
2022/05/28 08:43:14;;;;;;;4.07;1.85;;;15.30;91.10;;;;;;5093388;28;19999;-71
2022/05/28 08:45:43;;;;;;;11.60;3.10;;;15.30;91.70;;;;;;5094484;28;20139;-72
2022/05/28 08:48:10;;;;;;;6.33;2.50;;;15.40;91.10;;;;;;5096576;28;20615;-71
2022/05/28 08:50:45;;;;;;;6.47;2.17;;;15.60;93.50;;;;;;5079638;28;20051;-71
2022/05/28 08:53:14;;;;;;;5.97;2.10;;;15.70;91.00;;;;;;5080350;28;20048;-71
2022/05/28 08:55:47;;;;;;;4.43;2.88;;;15.70;90.20;;;;;;5096192;28;20395;-71
2022/05/28 08:58:15;;;;;;;3.97;2.15;;;15.60;90.70;;;;;;5097080;28;20044;-71
2022/05/28 09:00:52;;;;;;;7.78;1.90;;;15.50;90.30;;;;;;5095802;28;20047;-71
2022/05/28 09:03:40;;;;;;;5.97;1.95;;;15.70;90.50;;;;;;5080863;28;20052;-70
2022/05/28 09:06:15;;;;;;;6.90;2.58;;;15.90;89.90;;;;;;5093031;28;20059;-70
2022/05/28 09:08:45;;;;;;;4.25;1.90;;;16.00;90.40;;;;;;5096660;28;20455;-70
2022/05/28 09:11:17;;;;;;;3.65;1.98;;;16.20;89.90;;;;;;5095685;28;20136;-71
2022/05/28 09:13:49;;;;;;;8.57;2.17;;;16.20;89.60;;;;;;5095631;28;20040;-71
2022/05/28 09:16:27;;;;;;;6.65;1.65;;;16.40;89.40;;;;;;5097728;28;20040;-71
2022/05/28 09:18:57;;;;;;;8.00;2.00;;;16.50;87.60;;;;;;5096417;28;20044;-70
2022/05/28 09:21:24;;;;;;;8.18;2.70;;;16.60;84.30;;;;;;5095445;28;20048;-71
2022/05/28 09:24:06;;;;;;;5.50;2.10;;;16.40;83.90;;;;;;5096571;28;20044;-71
2022/05/28 09:26:49;;;;;;;7.50;2.25;;;16.40;84.00;;;;;;5095891;28;20055;-71
2022/05/28 09:29:37;;;;;;;3.17;1.65;;;16.40;84.40;;;;;;5080537;28;20051;-71
2022/05/28 09:32:13;;;;;;;6.00;1.98;;;16.20;84.60;;;;;;5096347;28;20042;-71
2022/05/28 09:34:58;;;;;;;8.98;2.17;;;16.40;85.80;;;;;;5096689;28;20124;-71
2022/05/28 09:37:52;;;;;;;4.82;1.73;;;16.60;84.50;;;;;;5095429;28;20082;-71
2022/05/28 09:40:37;;;;;;;6.13;2.10;;;16.80;82.60;;;;;;5095377;28;20052;-71
2022/05/28 09:43:04;;;;;;;4.53;1.63;;;16.60;83.60;;;;;;5095104;28;20524;-71
2022/05/28 09:45:37;;;;;;;5.47;1.90;;;16.40;84.00;;;;;;5096765;28;20052;-71
2022/05/28 09:48:04;;;;;;;7.72;2.40;;;16.60;83.20;;;;;;5096265;28;20372;-71
2022/05/28 09:50:41;;;;;;;6.95;1.88;;;17.00;82.80;;;;;;5096522;28;20063;-71
2022/05/28 09:56:06;;;;;;;7.30;3.80;;;17.30;77.70;;;;;;5096266;28;20051;-71
2022/05/28 09:58:38;;;;;;;7.18;2.10;;;17.30;77.20;;;;;;5078687;28;20044;-71
2022/05/28 10:01:07;;;;;;;5.25;3.03;;;17.30;78.30;;;;;;5062683;28;20040;-71
2022/05/28 10:06:20;;;;;;;77.65;66.47;;;17.40;76.10;;;;;;5096441;28;20308;-70
2022/05/28 10:08:47;;;;;;;11.73;8.77;;;17.20;76.80;;;;;;5078230;28;20040;-70
2022/05/28 10:11:15;;;;;;;7.32;4.28;;;17.20;76.30;;;;;;5096622;28;20052;-70
2022/05/28 10:13:53;;;;;;;8.73;2.75;;;17.00;77.10;;;;;;5095982;28;20043;-71
2022/05/28 10:16:35;;;;;;;6.13;2.03;;;17.00;77.70;;;;;;5078831;28;20044;-71
2022/05/28 10:19:34;;;;;;;3.22;1.77;;;17.00;76.90;;;;;;5094691;28;20040;-71
2022/05/28 10:22:03;;;;;;;6.75;1.85;;;17.10;75.60;;;;;;5095326;28;20047;-71
2022/05/28 10:24:39;;;;;;;5.30;1.52;;;17.20;75.90;;;;;;5061198;28;20044;-71
2022/05/28 10:27:10;;;;;;;3.97;1.50;;;17.20;76.90;;;;;;5078519;28;20050;-71
2022/05/28 10:29:41;;;;;;;7.80;1.70;;;17.20;76.60;;;;;;5062377;28;20071;-71
2022/05/28 10:32:23;;;;;;;4.10;1.80;;;17.20;75.70;;;;;;5078365;28;20475;-71
2022/05/28 10:35:13;;;;;;;6.35;1.90;;;17.40;75.60;;;;;;5078451;28;20380;-71
2022/05/28 10:37:40;;;;;;;60.28;47.25;;;17.70;74.80;;;;;;5094025;28;20059;-68
2022/05/28 10:40:22;;;;;;;11.57;6.90;;;18.00;73.80;;;;;;5094894;28;20044;-66
2022/05/28 10:42:49;;;;;;;5.50;2.20;;;17.90;71.40;;;;;;5095902;28;20048;-66
2022/05/28 10:45:18;;;;;;;4.82;1.95;;;17.90;71.60;;;;;;5078462;28;20040;-64
2022/05/28 10:48:11;;;;;;;3.50;1.35;;;17.90;69.80;;;;;;5077252;28;20478;-62
2022/05/28 10:51:11;;;;;;;5.43;1.20;;;18.00;68.10;;;;;;5093940;28;20044;-63
2022/05/28 10:53:50;;;;;;;3.92;1.50;;;17.90;68.70;;;;;;5094771;28;20047;-66
2022/05/28 10:56:33;;;;;;;6.25;2.42;;;17.90;69.70;;;;;;5079096;28;20055;-67
2022/05/28 10:59:11;;;;;;;6.15;1.85;;;17.70;71.10;;;;;;5093984;28;20063;-66
2022/05/28 11:01:39;;;;;;;5.75;1.80;;;17.80;71.10;;;;;;5093591;28;20043;-69
2022/05/28 11:04:35;;;;;;;4.85;1.75;;;17.80;71.00;;;;;;5094710;28;20043;-67
2022/05/28 11:07:17;;;;;;;14.82;5.50;;;17.60;70.40;;;;;;5093731;28;20036;-68
2022/05/28 11:10:02;;;;;;;8.07;3.45;;;17.50;71.10;;;;;;5093504;28;20040;-76
2022/05/28 11:12:53;;;;;;;4.05;2.00;;;17.50;71.60;;;;;;5094603;28;20048;-72
2022/05/28 11:15:38;;;;;;;8.68;4.40;;;17.70;70.20;;;;;;5079734;28;20044;-73
2022/05/28 11:18:22;;;;;;;6.22;2.08;;;17.70;72.20;;;;;;5094633;28;20567;-59
2022/05/28 11:21:01;;;;;;;6.55;1.65;;;17.70;72.40;;;;;;5094119;28;20142;-74
2022/05/28 11:24:02;;;;;;;4.68;1.67;;;17.70;69.60;;;;;;5094556;28;20044;-75
2022/05/28 11:26:54;;;;;;;5.80;1.55;;;17.70;70.10;;;;;;5093147;28;20468;-68
2022/05/28 11:29:42;;;;;;;5.63;1.40;;;17.50;70.60;;;;;;5083828;28;20036;-70
2022/05/28 11:32:27;;;;;;;3.50;1.92;;;17.70;71.20;;;;;;5094300;28;20138;-68
2022/05/28 11:35:38;;;;;;;3.88;1.80;;;17.80;70.00;;;;;;5094066;28;20039;-69
2022/05/28 11:38:09;;;;;;;3.45;1.45;;;18.10;70.10;;;;;;5060841;28;20040;-69
2022/05/28 11:41:05;;;;;;;9.05;2.22;;;18.30;69.30;;;;;;5094050;28;20044;-69
2022/05/28 11:43:40;;;;;;;3.40;1.95;;;18.50;69.20;;;;;;5089241;28;20081;-69
2022/05/28 11:46:21;;;;;;;3.40;1.60;;;18.80;67.60;;;;;;5093136;28;20127;-69
2022/05/28 11:52:16;;;;;;;5.32;1.77;;;18.60;67.00;;;;;;5094262;28;20460;-71
2022/05/28 11:54:52;;;;;;;3.88;1.42;;;18.50;67.70;;;;;;5094115;28;20040;-72
2022/05/28 11:57:27;;;;;;;6.53;1.70;;;18.40;69.50;;;;;;5076483;28;20463;-72
2022/05/28 11:59:55;;;;;;;3.95;1.70;;;18.40;69.30;;;;;;5092929;28;20150;-72
2022/05/28 12:02:33;;;;;;;3.90;1.48;;;18.50;69.50;;;;;;5092797;28;20040;-72
2022/05/28 12:05:01;;;;;;;3.65;1.63;;;18.60;69.20;;;;;;5078307;28;20399;-73
2022/05/28 12:07:30;;;;;;;4.38;1.55;;;18.60;68.90;;;;;;5093936;28;20047;-72
2022/05/28 12:09:57;;;;;;;3.13;1.73;;;18.60;68.00;;;;;;5094383;28;20059;-72
2022/05/28 12:12:55;;;;;;;5.20;2.00;;;18.60;68.10;;;;;;5093821;28;20052;-71
2022/05/28 12:15:26;;;;;;;3.60;1.50;;;18.50;66.00;;;;;;5092712;28;20093;-72
2022/05/28 12:17:57;;;;;;;4.13;1.75;;;18.40;66.90;;;;;;5093865;28;20051;-73
2022/05/28 12:20:32;;;;;;;8.07;2.95;;;18.20;68.00;;;;;;5093521;28;20036;-66
2022/05/28 12:23:01;;;;;;;5.20;1.88;;;17.90;68.20;;;;;;5093669;28;20044;-67
2022/05/28 12:25:37;;;;;;;57.42;48.30;;;18.00;70.00;;;;;;5094123;28;20047;-69
2022/05/28 12:28:11;;;;;;;6.70;4.32;;;18.00;69.00;;;;;;5059312;28;20048;-65
2022/05/28 12:30:43;;;;;;;6.95;2.90;;;18.00;69.00;;;;;;5093449;28;20044;-62
2022/05/28 12:33:28;;;;;;;3.85;1.90;;;17.80;68.90;;;;;;5093244;28;20048;-60
2022/05/28 12:36:27;;;;;;;7.65;1.85;;;17.80;69.00;;;;;;5093066;28;20040;-60
2022/05/28 12:39:19;;;;;;;3.88;1.30;;;18.00;68.10;;;;;;5094247;28;20043;-56
2022/05/28 12:41:59;;;;;;;3.53;1.42;;;18.00;66.20;;;;;;5093942;28;20040;-62
2022/05/28 12:44:26;;;;;;;2.90;1.50;;;18.10;66.70;;;;;;5091962;28;20044;-76
2022/05/28 12:46:54;;;;;;;5.13;1.48;;;18.50;65.10;;;;;;5091970;28;20040;-75
2022/05/28 12:49:33;;;;;;;14.35;4.15;;;18.90;65.90;;;;;;5091993;28;20446;-75
2022/05/28 12:52:22;;;;;;;6.97;1.50;;;19.40;66.50;;;;;;5093089;28;20086;-74
2022/05/28 12:55:39;;;;;;;2.70;1.17;;;19.60;63.00;;;;;;5091941;28;20135;-74
2022/05/28 12:58:08;;;;;;;4.75;2.00;;;19.50;62.40;;;;;;5094146;28;20383;-75
2022/05/28 13:00:54;;;;;;;5.68;1.45;;;19.30;64.20;;;;;;5093270;28;20391;-75
2022/05/28 13:03:23;;;;;;;3.65;1.25;;;19.20;63.70;;;;;;5092720;28;20044;-75
2022/05/28 13:05:59;;;;;;;;;;;19.00;64.10;;;;;;5092929;28;20074;-74
2022/05/28 13:08:28;;;;;;;3.13;1.20;;;18.70;64.30;;;;;;5092587;28;19920;-73
2022/05/28 13:10:56;;;;;;;3.17;1.30;;;18.70;65.10;;;;;;5092816;28;20047;-73
2022/05/28 13:13:47;;;;;;;3.25;1.10;;;18.70;64.80;;;;;;5075417;28;20066;-75
2022/05/28 13:16:35;;;;;;;46.60;35.88;;;18.80;65.20;;;;;;5074876;28;20530;-79
2022/05/28 13:19:11;;;;;;;5.10;3.53;;;18.90;63.90;;;;;;5091761;28;20055;-75